KMOB/MOB METAR and TAF weather

Enter ICAO airport designator
Station Type Date Time Source
KMOB METAR 2022/05/24 23:56 UTC NOAA

KMOB 242356Z 14013G20KT 7SM -RA FEW018 SCT040 26/24 A2994 RMK AO2 LTG DSNT W RAB47 SLP135 CB DSNT W P0007 60010 T02610239 10294 20261 53002 $


Station Type Date Time Source
KMOB Decoded METAR 2022/05/24 23:56 UTC NOAA

MOBILE REGIONAL AIRPORT, AL, United States (KMOB) 30-41N 88-14W 67M
May 24, 2022 - 07:56 PM EDT / 2022.05.24 2356 UTC
Wind: from the SE (140 degrees) at 15 MPH (13 KT) gusting to 23 MPH (20 KT):0
Visibility: 7 mile(s):0
Sky conditions: partly cloudy
Weather: light rain; Cumulonimbus clouds, lightning observed
Precipitation last hour: 0.07 inches
Temperature: 79.0 F (26.1 C)
Dew Point: 75.0 F (23.9 C)
Relative Humidity: 87%
Pressure (altimeter): 29.94 in. Hg (1013 hPa)
Pressure tendency: 0.01 inches (0.2 hPa) higher than three hours ago
ob: KMOB 242356Z 14013G20KT 7SM -RA FEW018 SCT040 26/24 A2994 RMK AO2 LTG DSNT W RAB47 SLP135 CB DSNT W P0007 60010 T02610239 10294 20261 53002
cycle: 0

Station Type Date Time Source
KMOB TAF 2022/05/24 20:18 UTC NOAA

TAF
AMD KMOB 242017Z 2420/2518 15012G20KT 6SM BR VCTS SCT020CB BKN040 BKN150
FM250400 14007KT P6SM BKN025
FM250900 15008KT 6SM BR VCTS BKN015CB

Example: see airport list